Time;durP1;ratioP1;P1;durP2;ratioP2;P2;SDS_P1;SDS_P2;PMS_P1;PMS_P2;Temp;Humidity;BMP_temperature;BMP_pressure;BME280_temperature;BME280_humidity;BME280_pressure;Samples;Min_cycle;Max_cycle;Signal;HPM_P1;HPM_P2
2023/04/25 00:01:59;;;;;;;12.15;3.50;;;8.20;99.90;;;;;;5026515;28;20100;-62
2023/04/25 00:04:25;;;;;;;22.80;4.28;;;8.10;99.90;;;;;;5032146;28;20025;-62
2023/04/25 00:06:52;;;;;;;12.07;3.95;;;8.10;99.90;;;;;;5031369;28;20107;-62
2023/04/25 00:09:17;;;;;;;13.10;4.03;;;8.00;99.90;;;;;;5035660;28;20396;-62
2023/04/25 00:11:43;;;;;;;15.98;4.68;;;8.10;99.90;;;;;;5028770;28;20029;-62
2023/04/25 00:14:09;;;;;;;11.50;3.65;;;8.00;99.90;;;;;;5028153;28;20029;-62
2023/04/25 00:16:35;;;;;;;18.08;3.80;;;8.00;99.90;;;;;;5026488;28;20017;-62
2023/04/25 00:19:02;;;;;;;11.63;3.60;;;8.00;99.90;;;;;;5027068;28;20436;-63
2023/04/25 00:21:28;;;;;;;11.88;4.25;;;8.00;99.90;;;;;;5034629;28;20477;-63
2023/04/25 00:23:55;;;;;;;14.98;4.03;;;7.90;99.90;;;;;;5035177;28;20490;-64
2023/04/25 00:26:21;;;;;;;9.05;4.05;;;7.90;99.90;;;;;;5045504;28;20098;-63
2023/04/25 00:28:47;;;;;;;13.05;3.88;;;7.90;99.90;;;;;;5028452;28;20063;-62
2023/04/25 00:31:13;;;;;;;21.38;4.40;;;7.80;99.90;;;;;;5029719;28;20044;-63
2023/04/25 00:33:39;;;;;;;14.13;4.20;;;7.70;99.90;;;;;;5031974;28;20026;-62
2023/04/25 00:36:05;;;;;;;18.98;4.88;;;7.70;99.90;;;;;;5027152;28;20365;-62
2023/04/25 00:38:31;;;;;;;22.45;5.75;;;7.70;99.90;;;;;;5029889;28;20029;-63
2023/04/25 00:40:57;;;;;;;16.20;4.85;;;7.60;99.90;;;;;;5029773;28;20381;-62
2023/04/25 00:43:26;;;;;;;15.48;4.03;;;7.60;99.90;;;;;;5028235;28;20036;-62
2023/04/25 00:45:52;;;;;;;23.08;4.90;;;7.70;99.90;;;;;;5031764;28;20037;-63
2023/04/25 00:48:21;;;;;;;17.85;4.40;;;7.60;99.90;;;;;;5027662;28;20041;-62
2023/04/25 00:50:58;;;;;;;17.52;4.65;;;7.50;99.90;;;;;;5026343;28;20017;-62
2023/04/25 00:53:26;;;;;;;19.42;4.68;;;7.50;99.90;;;;;;5027555;28;20025;-62
2023/04/25 00:55:52;;;;;;;19.10;5.78;;;7.40;99.90;;;;;;5026398;28;20392;-62
2023/04/25 00:58:18;;;;;;;23.35;4.60;;;7.40;99.90;;;;;;5025935;28;20021;-62
2023/04/25 01:00:46;;;;;;;12.48;4.57;;;7.20;99.90;;;;;;5027019;28;20024;-62
2023/04/25 01:03:12;;;;;;;13.35;4.78;;;7.30;99.90;;;;;;5028608;28;20026;-63
2023/04/25 01:05:41;;;;;;;13.10;4.35;;;7.20;99.90;;;;;;5027290;28;20018;-61
2023/04/25 01:08:07;;;;;;;20.33;4.72;;;7.10;99.90;;;;;;5028462;28;20034;-62
2023/04/25 01:10:32;;;;;;;19.40;5.20;;;7.10;99.90;;;;;;5027958;28;22126;-62
2023/04/25 01:12:58;;;;;;;25.65;5.65;;;7.00;99.90;;;;;;5028022;28;20075;-63
2023/04/25 01:15:23;;;;;;;14.55;4.57;;;7.00;99.90;;;;;;5025578;28;20030;-62
2023/04/25 01:17:49;;;;;;;12.77;4.30;;;7.10;99.90;;;;;;5026773;28;20021;-63
2023/04/25 01:20:15;;;;;;;18.50;5.38;;;7.10;99.90;;;;;;5026162;28;20033;-62
2023/04/25 01:22:42;;;;;;;19.55;5.25;;;7.10;99.90;;;;;;5024866;28;20037;-62
2023/04/25 01:25:09;;;;;;;18.20;4.35;;;7.10;99.90;;;;;;5025703;28;20140;-63
2023/04/25 01:27:36;;;;;;;22.70;5.45;;;7.10;99.90;;;;;;5028105;28;20104;-63
2023/04/25 01:30:03;;;;;;;24.10;5.30;;;7.00;99.90;;;;;;5027291;28;20040;-63
2023/04/25 01:32:37;;;;;;;18.30;4.53;;;7.00;99.90;;;;;;5028468;28;20022;-63
2023/04/25 01:35:10;;;;;;;18.85;5.57;;;7.00;99.90;;;;;;5023364;28;20022;-63
2023/04/25 01:37:45;;;;;;;10.98;5.10;;;7.10;99.90;;;;;;5034446;28;20037;-63
2023/04/25 01:40:12;;;;;;;25.10;5.32;;;7.10;99.90;;;;;;5032886;28;20052;-64
2023/04/25 01:42:40;;;;;;;19.33;5.47;;;7.10;99.90;;;;;;5029341;28;20147;-64
2023/04/25 01:45:07;;;;;;;22.75;4.97;;;7.10;99.90;;;;;;5029548;28;20034;-64
2023/04/25 01:47:34;;;;;;;20.77;4.57;;;7.00;99.90;;;;;;5029783;28;20021;-63
2023/04/25 01:50:01;;;;;;;18.48;5.82;;;7.00;99.90;;;;;;5027600;28;20025;-63
2023/04/25 01:52:27;;;;;;;19.25;5.85;;;7.00;99.90;;;;;;5032466;28;20074;-63
2023/04/25 01:54:54;;;;;;;23.65;4.93;;;7.00;99.90;;;;;;5026634;28;20025;-63
2023/04/25 01:57:19;;;;;;;14.43;5.10;;;7.00;99.90;;;;;;5027987;28;20018;-64
2023/04/25 01:59:45;;;;;;;27.73;5.15;;;7.00;99.90;;;;;;5029549;28;20527;-64
2023/04/25 02:02:11;;;;;;;18.77;4.85;;;6.90;99.90;;;;;;5027051;28;20120;-63
2023/04/25 02:04:36;;;;;;;24.92;5.10;;;6.90;99.90;;;;;;5031918;28;20032;-63
2023/04/25 02:07:03;;;;;;;23.80;5.75;;;6.90;99.90;;;;;;5027512;28;20084;-63
2023/04/25 02:09:29;;;;;;;17.77;5.00;;;6.80;99.90;;;;;;5028290;28;20029;-63
2023/04/25 02:11:54;;;;;;;22.58;6.25;;;6.90;99.90;;;;;;5031603;28;20491;-65
2023/04/25 02:14:20;;;;;;;21.13;4.97;;;6.80;99.90;;;;;;5030986;28;20030;-63
2023/04/25 02:16:46;;;;;;;14.48;4.28;;;6.90;99.90;;;;;;5031179;28;20045;-63
2023/04/25 02:19:12;;;;;;;22.17;5.63;;;6.80;99.90;;;;;;5030679;28;20115;-64
2023/04/25 02:21:38;;;;;;;22.42;4.65;;;6.90;99.90;;;;;;5030962;28;20511;-63
2023/04/25 02:24:04;;;;;;;22.75;5.32;;;6.90;99.90;;;;;;5033221;28;20037;-63
2023/04/25 02:26:30;;;;;;;19.70;4.75;;;6.90;99.90;;;;;;5033946;28;20087;-64
2023/04/25 02:28:56;;;;;;;15.25;5.78;;;6.90;99.90;;;;;;5026942;28;20067;-64
2023/04/25 02:31:22;;;;;;;24.33;4.72;;;6.90;99.90;;;;;;5028444;28;20044;-64
2023/04/25 02:33:48;;;;;;;24.48;4.82;;;6.90;99.90;;;;;;5026560;28;20026;-64
2023/04/25 02:36:14;;;;;;;18.13;6.00;;;6.90;99.90;;;;;;5032664;28;20098;-62
2023/04/25 02:38:40;;;;;;;33.08;5.00;;;6.90;99.90;;;;;;5033086;28;20029;-63
2023/04/25 02:41:06;;;;;;;16.90;4.22;;;6.90;99.90;;;;;;5028608;28;20032;-63
2023/04/25 02:43:31;;;;;;;14.50;3.65;;;7.00;99.90;;;;;;5027238;28;20112;-64
2023/04/25 02:45:57;;;;;;;14.07;4.53;;;7.00;99.90;;;;;;5032623;28;20040;-63
2023/04/25 02:48:22;;;;;;;18.27;4.13;;;6.90;99.90;;;;;;5030026;28;20026;-63
2023/04/25 02:50:48;;;;;;;12.55;4.35;;;6.90;99.90;;;;;;5031184;28;20500;-63
2023/04/25 02:53:13;;;;;;;13.45;3.72;;;6.90;99.90;;;;;;5027855;28;20033;-63
2023/04/25 02:55:39;;;;;;;14.48;4.40;;;7.00;99.90;;;;;;5033080;28;20032;-63
2023/04/25 02:58:05;;;;;;;12.35;3.85;;;7.00;99.90;;;;;;5027999;28;20029;-62
2023/04/25 03:00:30;;;;;;;19.27;3.75;;;7.00;99.90;;;;;;5027790;28;20071;-63
2023/04/25 03:02:56;;;;;;;12.18;3.42;;;6.90;99.90;;;;;;5028073;28;20037;-64
2023/04/25 03:05:21;;;;;;;14.52;4.00;;;7.00;99.90;;;;;;5028518;28;20042;-62
2023/04/25 03:07:47;;;;;;;19.75;4.50;;;7.00;99.90;;;;;;5029257;28;20026;-61
2023/04/25 03:10:13;;;;;;;13.98;4.18;;;7.00;99.90;;;;;;5041106;28;20045;-64
2023/04/25 03:12:38;;;;;;;31.17;3.90;;;7.00;99.90;;;;;;5040691;28;20108;-63
2023/04/25 03:15:05;;;;;;;14.98;4.00;;;7.00;99.90;;;;;;5030349;28;20041;-63
2023/04/25 03:17:30;;;;;;;22.02;4.22;;;7.00;99.90;;;;;;5050896;28;20638;-63
2023/04/25 03:19:57;;;;;;;12.82;3.55;;;7.00;99.90;;;;;;5033898;28;20112;-64
2023/04/25 03:22:23;;;;;;;9.13;3.55;;;7.00;99.90;;;;;;5029944;28;20601;-63
2023/04/25 03:24:49;;;;;;;10.60;3.75;;;7.00;99.90;;;;;;5028711;28;20033;-62
2023/04/25 03:27:15;;;;;;;10.38;3.75;;;6.90;99.90;;;;;;5036167;28;20069;-63
2023/04/25 03:29:40;;;;;;;22.70;4.70;;;7.00;99.90;;;;;;5031078;28;20741;-63
2023/04/25 03:32:06;;;;;;;23.02;3.67;;;6.90;99.90;;;;;;5039032;28;20033;-64
2023/04/25 03:34:31;;;;;;;14.35;4.07;;;7.00;99.90;;;;;;5029102;28;20030;-63
2023/04/25 03:36:57;;;;;;;22.17;3.75;;;7.00;99.90;;;;;;5031511;28;20025;-64
2023/04/25 03:39:22;;;;;;;18.52;4.05;;;7.00;99.90;;;;;;5026703;28;20485;-63
2023/04/25 03:41:48;;;;;;;13.60;3.95;;;7.00;99.90;;;;;;5033202;28;20026;-63
2023/04/25 03:44:14;;;;;;;18.42;3.90;;;7.00;99.90;;;;;;5026732;28;20063;-63
2023/04/25 03:46:40;;;;;;;21.85;5.10;;;7.00;99.90;;;;;;5032329;28;20511;-63
2023/04/25 03:49:05;;;;;;;15.32;4.47;;;7.00;99.90;;;;;;5029538;28;20037;-64
2023/04/25 03:51:31;;;;;;;15.75;3.42;;;7.00;99.90;;;;;;5032823;28;20395;-63
2023/04/25 03:53:56;;;;;;;6.60;3.78;;;7.00;99.90;;;;;;5028552;28;20111;-63
2023/04/25 03:56:22;;;;;;;23.73;4.47;;;6.90;99.90;;;;;;5030938;28;20032;-63
2023/04/25 03:58:48;;;;;;;21.38;5.25;;;6.90;99.90;;;;;;5026451;28;20045;-64
2023/04/25 04:01:13;;;;;;;13.68;4.47;;;6.90;99.90;;;;;;5029334;28;20025;-64
2023/04/25 04:03:39;;;;;;;13.18;3.80;;;7.00;99.90;;;;;;5029083;28;20034;-64
2023/04/25 04:06:05;;;;;;;19.23;4.40;;;7.00;99.90;;;;;;5028556;28;20045;-63
2023/04/25 04:08:32;;;;;;;17.77;4.85;;;7.00;99.90;;;;;;5028635;28;20028;-61
2023/04/25 04:10:58;;;;;;;21.50;5.55;;;7.00;99.90;;;;;;5023427;28;20030;-63
2023/04/25 04:13:26;;;;;;;23.65;4.68;;;7.00;99.90;;;;;;5027667;28;20044;-64
2023/04/25 04:15:52;;;;;;;17.17;4.78;;;7.00;99.90;;;;;;5030009;28;20021;-63
2023/04/25 04:18:17;;;;;;;19.88;7.20;;;7.00;99.90;;;;;;5023788;28;20033;-62
2023/04/25 04:20:43;;;;;;;16.05;4.50;;;7.00;99.90;;;;;;5030612;28;20453;-63
2023/04/25 04:23:08;;;;;;;23.92;4.43;;;7.00;99.90;;;;;;5029113;28;20445;-64
2023/04/25 04:25:34;;;;;;;10.95;3.83;;;7.00;99.90;;;;;;5028207;28;20048;-63
2023/04/25 04:28:00;;;;;;;18.38;5.25;;;7.00;99.90;;;;;;5029122;28;20088;-64
2023/04/25 04:30:29;;;;;;;18.10;4.18;;;7.00;99.90;;;;;;5029294;28;20029;-63
2023/04/25 04:32:55;;;;;;;13.77;4.88;;;7.00;99.90;;;;;;5030184;28;20204;-63
2023/04/25 04:35:22;;;;;;;19.45;4.57;;;7.00;99.90;;;;;;5029303;28;20025;-64
2023/04/25 04:37:47;;;;;;;26.00;4.93;;;7.00;99.90;;;;;;5027775;28;20544;-63
2023/04/25 04:40:15;;;;;;;12.65;3.80;;;7.00;99.90;;;;;;5029952;28;20113;-63
2023/04/25 04:42:42;;;;;;;16.90;3.92;;;7.10;99.90;;;;;;5028863;28;20072;-64
2023/04/25 04:45:08;;;;;;;12.43;4.03;;;7.10;99.90;;;;;;5031059;28;20032;-64
2023/04/25 04:47:33;;;;;;;12.60;4.03;;;7.10;99.90;;;;;;5028388;28;20037;-63
2023/04/25 04:49:59;;;;;;;15.73;4.55;;;7.10;99.90;;;;;;5026822;28;20038;-59
2023/04/25 04:52:25;;;;;;;22.05;4.40;;;7.10;99.90;;;;;;5025261;28;20030;-59
2023/04/25 04:54:50;;;;;;;19.83;4.90;;;7.10;99.90;;;;;;5022295;28;20029;-58
2023/04/25 04:57:16;;;;;;;26.20;3.97;;;7.10;99.90;;;;;;5025288;28;20049;-58
2023/04/25 04:59:42;;;;;;;14.77;4.10;;;7.10;99.90;;;;;;5020769;28;20025;-58
2023/04/25 05:02:07;;;;;;;24.08;4.55;;;7.10;99.90;;;;;;5023322;28;20061;-58
2023/04/25 05:04:33;;;;;;;28.98;5.43;;;7.10;99.90;;;;;;5026083;28;20112;-61
2023/04/25 05:06:58;;;;;;;18.13;4.80;;;7.10;99.90;;;;;;5027925;28;20564;-60
2023/04/25 05:09:25;;;;;;;21.40;4.30;;;7.10;99.90;;;;;;5025016;28;20025;-60
2023/04/25 05:11:51;;;;;;;20.17;5.13;;;7.20;99.90;;;;;;5028466;28;20023;-60
2023/04/25 05:14:17;;;;;;;19.02;4.90;;;7.20;99.90;;;;;;5027822;28;20033;-59
2023/04/25 05:16:43;;;;;;;28.10;5.10;;;7.20;99.90;;;;;;5025509;28;20033;-58
2023/04/25 05:19:09;;;;;;;27.20;5.32;;;7.20;99.90;;;;;;5028108;28;20095;-56
2023/04/25 05:21:35;;;;;;;16.05;4.75;;;7.20;99.90;;;;;;5029747;28;20567;-61
2023/04/25 05:24:01;;;;;;;30.73;5.88;;;7.20;99.90;;;;;;5031503;28;20311;-59
2023/04/25 05:26:30;;;;;;;26.08;5.40;;;7.30;99.90;;;;;;5033070;28;20029;-58
2023/04/25 05:28:59;;;;;;;25.98;6.75;;;7.20;99.90;;;;;;5029948;28;20053;-59
2023/04/25 05:31:25;;;;;;;19.55;5.13;;;7.30;99.90;;;;;;5047972;28;20089;-58
2023/04/25 05:33:51;;;;;;;26.20;4.97;;;7.20;99.90;;;;;;5032461;28;20095;-56
2023/04/25 05:36:17;;;;;;;16.02;4.55;;;7.30;99.90;;;;;;5027052;28;20036;-58
2023/04/25 05:38:43;;;;;;;15.25;4.72;;;7.30;99.90;;;;;;5028647;28;20076;-59
2023/04/25 05:41:08;;;;;;;24.38;4.68;;;7.30;99.90;;;;;;5031071;28;20030;-59
2023/04/25 05:43:34;;;;;;;16.33;4.50;;;7.30;99.90;;;;;;5032554;28;20093;-58
2023/04/25 05:46:00;;;;;;;21.88;5.50;;;7.30;99.90;;;;;;5033169;28;20021;-59
2023/04/25 05:48:25;;;;;;;22.77;4.88;;;7.30;99.90;;;;;;5032781;28;20047;-56
2023/04/25 05:50:51;;;;;;;26.30;6.43;;;7.40;99.90;;;;;;5032902;28;20029;-59
2023/04/25 05:53:17;;;;;;;19.33;5.20;;;7.40;99.90;;;;;;5033676;28;20043;-57
2023/04/25 05:55:43;;;;;;;17.60;5.93;;;7.50;99.90;;;;;;5037631;28;20017;-59
2023/04/25 05:58:08;;;;;;;31.90;4.75;;;7.50;99.90;;;;;;5037853;28;20091;-58
2023/04/25 06:00:34;;;;;;;25.95;4.45;;;7.50;99.90;;;;;;5033937;28;20045;-59
2023/04/25 06:03:00;;;;;;;24.45;4.20;;;7.50;99.90;;;;;;5034633;28;20424;-58
2023/04/25 06:05:26;;;;;;;27.80;5.47;;;7.50;99.90;;;;;;5024448;28;20089;-59
2023/04/25 06:07:51;;;;;;;18.35;5.88;;;7.40;99.90;;;;;;5032744;28;20400;-59
2023/04/25 06:10:18;;;;;;;20.90;5.75;;;7.50;99.90;;;;;;5032090;28;20036;-58
2023/04/25 06:12:43;;;;;;;24.55;4.63;;;7.60;99.90;;;;;;5036495;28;20022;-60
2023/04/25 06:15:10;;;;;;;19.67;4.82;;;7.60;99.90;;;;;;5026364;28;20109;-58
2023/04/25 06:17:35;;;;;;;24.27;4.30;;;7.60;99.90;;;;;;5036446;28;20815;-56
2023/04/25 06:20:01;;;;;;;26.25;5.32;;;7.70;99.90;;;;;;5031457;28;20038;-58
2023/04/25 06:22:27;;;;;;;21.27;4.75;;;7.80;99.90;;;;;;5031941;28;20022;-58
2023/04/25 06:24:52;;;;;;;17.27;4.97;;;7.90;99.90;;;;;;5034328;28;20029;-57
2023/04/25 06:27:18;;;;;;;22.00;5.03;;;7.90;99.90;;;;;;5032339;28;20026;-59
2023/04/25 06:29:44;;;;;;;17.20;3.95;;;7.90;99.90;;;;;;5030604;28;20030;-61
2023/04/25 06:32:09;;;;;;;17.05;4.75;;;7.90;99.90;;;;;;5031420;28;20036;-58
2023/04/25 06:34:35;;;;;;;26.10;4.63;;;8.00;99.90;;;;;;5027348;28;20029;-61
2023/04/25 06:37:00;;;;;;;26.95;6.65;;;7.90;99.90;;;;;;5027745;28;20041;-59
2023/04/25 06:39:26;;;;;;;15.18;5.72;;;8.00;99.90;;;;;;5027705;28;20022;-58
2023/04/25 06:41:51;;;;;;;29.92;5.18;;;8.10;99.90;;;;;;5029442;28;20029;-58
2023/04/25 06:44:17;;;;;;;19.30;4.88;;;8.20;99.90;;;;;;5029949;28;20041;-60
2023/04/25 06:46:42;;;;;;;17.15;4.45;;;8.20;99.90;;;;;;5030100;28;20021;-60
2023/04/25 06:49:08;;;;;;;21.55;4.05;;;8.20;99.90;;;;;;5027869;28;20068;-58
2023/04/25 06:51:33;;;;;;;21.70;4.50;;;8.20;99.90;;;;;;5030399;28;20025;-57
2023/04/25 06:53:59;;;;;;;13.18;3.42;;;8.20;99.90;;;;;;5028013;28;20032;-63
2023/04/25 06:56:25;;;;;;;20.60;3.50;;;8.30;99.90;;;;;;5029336;28;20033;-58
2023/04/25 06:58:51;;;;;;;19.20;3.05;;;8.30;99.90;;;;;;5029203;28;20061;-58
2023/04/25 07:01:16;;;;;;;21.33;5.97;;;8.30;99.90;;;;;;5029163;28;20096;-58
2023/04/25 07:03:42;;;;;;;13.52;3.10;;;8.40;99.90;;;;;;5028394;28;20021;-59
2023/04/25 07:06:07;;;;;;;15.05;3.10;;;8.40;99.90;;;;;;5032174;28;20041;-59
2023/04/25 07:08:33;;;;;;;18.90;3.80;;;8.40;99.90;;;;;;5030801;28;20037;-58
2023/04/25 07:10:58;;;;;;;13.80;3.58;;;8.40;99.90;;;;;;5031679;28;20041;-57
2023/04/25 07:13:24;;;;;;;17.30;3.60;;;8.30;99.90;;;;;;5029224;28;20086;-58
2023/04/25 07:15:49;;;;;;;21.20;4.63;;;8.40;99.90;;;;;;5033294;28;20025;-58
2023/04/25 07:18:15;;;;;;;24.25;4.28;;;8.50;99.90;;;;;;5031409;28;20191;-59
2023/04/25 07:20:41;;;;;;;24.83;4.88;;;8.60;99.90;;;;;;5030792;28;20020;-58
2023/04/25 07:23:06;;;;;;;18.70;3.85;;;8.60;99.90;;;;;;5027705;28;20385;-59
2023/04/25 07:25:32;;;;;;;19.98;3.00;;;8.70;99.90;;;;;;5032447;28;20408;-60
2023/04/25 07:27:57;;;;;;;16.45;3.53;;;8.70;99.90;;;;;;5036135;28;20503;-59
2023/04/25 07:30:23;;;;;;;18.52;3.15;;;8.70;99.90;;;;;;5042372;28;20235;-59
2023/04/25 07:32:50;;;;;;;10.98;2.85;;;8.80;99.90;;;;;;5035335;28;20033;-59
2023/04/25 07:35:16;;;;;;;17.85;2.97;;;8.70;99.90;;;;;;5029821;28;20031;-61
2023/04/25 07:37:42;;;;;;;14.63;2.88;;;8.70;99.90;;;;;;5038233;28;20017;-61
2023/04/25 07:40:09;;;;;;;14.80;3.42;;;8.70;99.90;;;;;;5034955;28;20028;-56
2023/04/25 07:42:35;;;;;;;11.77;2.85;;;8.70;99.90;;;;;;5033581;28;20029;-60
2023/04/25 07:45:01;;;;;;;20.33;3.35;;;8.70;99.90;;;;;;5030372;28;20037;-61
2023/04/25 07:47:26;;;;;;;10.80;3.30;;;8.70;99.90;;;;;;5028489;28;20041;-60
2023/04/25 07:49:52;;;;;;;12.57;2.58;;;8.90;99.90;;;;;;5030681;28;20108;-58
2023/04/25 07:52:18;;;;;;;10.40;2.80;;;9.00;99.90;;;;;;5027026;28;20029;-58
2023/04/25 07:54:43;;;;;;;23.95;4.55;;;8.90;99.90;;;;;;5029647;28;20112;-59
2023/04/25 07:57:09;;;;;;;12.32;3.50;;;8.90;99.90;;;;;;5032377;28;21961;-60
2023/04/25 07:59:34;;;;;;;15.40;3.20;;;8.90;99.90;;;;;;5029893;28;20031;-60
2023/04/25 08:02:01;;;;;;;17.40;2.85;;;8.90;99.90;;;;;;5028026;28;20045;-59
2023/04/25 08:04:26;;;;;;;6.63;2.92;;;8.80;99.90;;;;;;5028461;28;20427;-57
2023/04/25 08:06:53;;;;;;;9.43;2.67;;;8.80;99.90;;;;;;5038257;28;20103;-57
2023/04/25 08:09:19;;;;;;;16.35;3.17;;;8.80;99.90;;;;;;5028002;28;20028;-59
2023/04/25 08:11:45;;;;;;;10.32;3.25;;;8.90;99.90;;;;;;5030710;28;20030;-59
2023/04/25 08:14:12;;;;;;;18.83;3.47;;;9.00;99.90;;;;;;5020399;28;20020;-59
2023/04/25 08:16:38;;;;;;;13.48;3.10;;;8.90;99.90;;;;;;5022520;28;20084;-59
2023/04/25 08:19:04;;;;;;;15.00;3.30;;;9.00;99.90;;;;;;5029580;28;20056;-58
2023/04/25 08:21:31;;;;;;;12.50;3.15;;;9.10;99.90;;;;;;5025302;28;20448;-59
2023/04/25 08:23:57;;;;;;;16.25;3.33;;;9.20;99.90;;;;;;5026850;28;20040;-57
2023/04/25 08:26:23;;;;;;;18.50;3.25;;;9.10;99.90;;;;;;5030905;28;20542;-59
2023/04/25 08:28:49;;;;;;;9.05;2.00;;;9.30;99.90;;;;;;5030928;28;20021;-61
2023/04/25 08:31:14;;;;;;;13.50;2.80;;;9.30;99.90;;;;;;5042014;28;20017;-60
2023/04/25 08:33:40;;;;;;;11.93;2.35;;;9.40;99.90;;;;;;5031338;28;20037;-57
2023/04/25 08:36:06;;;;;;;14.95;2.28;;;9.30;99.90;;;;;;5029005;28;20037;-58
2023/04/25 08:38:31;;;;;;;16.30;3.05;;;9.40;99.90;;;;;;5027082;28;20021;-59
2023/04/25 08:40:59;;;;;;;8.40;2.53;;;9.60;99.90;;;;;;5031646;28;20118;-60
2023/04/25 08:43:25;;;;;;;17.20;2.72;;;9.60;99.90;;;;;;5026321;28;20031;-56
2023/04/25 08:45:53;;;;;;;8.45;2.40;;;9.50;99.90;;;;;;5028656;28;20639;-58
2023/04/25 08:48:19;;;;;;;14.52;1.92;;;9.50;99.90;;;;;;5035001;28;20099;-59
2023/04/25 08:50:53;;;;;;;4.22;2.10;;;9.60;99.90;;;;;;5036800;28;20457;-58
2023/04/25 08:53:30;;;;;;;5.50;2.83;;;9.70;99.90;;;;;;5033797;28;20084;-57
2023/04/25 08:55:57;;;;;;;8.60;2.50;;;9.80;99.90;;;;;;5033806;28;20389;-59
2023/04/25 08:58:23;;;;;;;9.68;1.95;;;9.70;99.90;;;;;;5032006;28;20334;-58
2023/04/25 09:00:49;;;;;;;12.30;2.53;;;9.60;99.90;;;;;;5034482;28;20017;-58
2023/04/25 09:03:15;;;;;;;11.73;1.90;;;9.70;99.90;;;;;;5032122;28;20078;-58
2023/04/25 09:05:41;;;;;;;10.90;1.80;;;9.70;99.90;;;;;;5032299;28;20018;-60
2023/04/25 09:08:07;;;;;;;10.13;1.85;;;9.70;99.90;;;;;;5031537;28;20488;-59
2023/04/25 09:10:34;;;;;;;8.50;2.47;;;9.70;99.90;;;;;;5029272;28;20087;-56
2023/04/25 09:13:14;;;;;;;6.35;1.90;;;9.60;99.90;;;;;;5036400;28;20025;-57
2023/04/25 09:15:48;;;;;;;13.70;2.25;;;9.50;99.90;;;;;;5032382;28;20024;-57
2023/04/25 09:18:25;;;;;;;9.75;2.58;;;9.40;99.90;;;;;;5028692;28;20017;-57
2023/04/25 09:20:55;;;;;;;12.13;2.42;;;9.30;99.90;;;;;;5033653;28;20018;-56
2023/04/25 09:23:22;;;;;;;9.73;1.80;;;9.30;99.90;;;;;;5031451;28;20029;-57
2023/04/25 09:25:52;;;;;;;17.58;2.50;;;9.40;99.90;;;;;;5030915;28;20444;-58
2023/04/25 09:28:28;;;;;;;8.18;3.42;;;9.40;99.90;;;;;;5035368;28;20377;-58
2023/04/25 09:30:57;;;;;;;12.70;2.72;;;9.60;99.90;;;;;;5032402;28;20109;-59
2023/04/25 09:33:35;;;;;;;17.50;2.33;;;9.50;99.90;;;;;;5032260;28;20499;-58
2023/04/25 09:36:09;;;;;;;22.13;2.83;;;9.50;99.90;;;;;;5028579;28;20081;-57
2023/04/25 09:38:42;;;;;;;7.00;2.03;;;9.40;99.90;;;;;;5033174;28;20041;-59
2023/04/25 09:41:09;;;;;;;12.13;2.07;;;9.40;99.90;;;;;;5031989;28;20432;-60
2023/04/25 09:43:35;;;;;;;16.08;1.98;;;9.50;99.90;;;;;;5033041;28;20262;-59
2023/04/25 09:46:01;;;;;;;10.73;2.35;;;9.50;99.90;;;;;;5029817;28;20104;-59
2023/04/25 09:48:28;;;;;;;7.95;1.60;;;9.50;99.90;;;;;;5029026;28;20492;-59
2023/04/25 09:51:04;;;;;;;10.77;2.60;;;9.50;99.90;;;;;;5037911;28;20431;-60
2023/04/25 09:53:31;;;;;;;5.47;1.83;;;9.60;99.90;;;;;;5030539;28;20362;-57
2023/04/25 09:56:00;;;;;;;17.45;2.58;;;9.60;99.90;;;;;;5031529;28;20013;-60
2023/04/25 09:58:29;;;;;;;7.63;2.28;;;9.60;99.90;;;;;;5030324;28;20075;-60
2023/04/25 10:00:58;;;;;;;11.70;2.20;;;9.70;99.90;;;;;;5031797;28;20088;-58
2023/04/25 10:03:25;;;;;;;7.00;1.48;;;9.60;99.90;;;;;;5030017;28;20048;-61
2023/04/25 10:05:52;;;;;;;6.68;2.22;;;9.70;99.90;;;;;;5030786;28;20100;-57
2023/04/25 10:08:18;;;;;;;7.38;2.15;;;9.80;99.90;;;;;;5029760;28;20079;-60
2023/04/25 10:10:44;;;;;;;9.73;3.03;;;9.90;99.90;;;;;;5029677;28;20082;-59
2023/04/25 10:13:13;;;;;;;13.73;2.70;;;9.80;99.90;;;;;;5030807;28;20025;-58
2023/04/25 10:16:17;;;;;;;9.15;2.33;;;9.60;99.90;;;;;;5027602;28;20020;-59
2023/04/25 10:18:42;;;;;;;13.05;2.50;;;9.40;99.90;;;;;;5027480;28;20500;-58
2023/04/25 10:21:08;;;;;;;14.48;2.47;;;9.30;99.90;;;;;;5036120;28;20075;-59
2023/04/25 10:23:34;;;;;;;11.00;1.77;;;9.30;99.90;;;;;;5030663;28;20105;-58
2023/04/25 10:26:00;;;;;;;17.92;2.60;;;9.30;99.90;;;;;;5030641;28;20025;-56
2023/04/25 10:28:26;;;;;;;20.17;2.75;;;9.40;99.90;;;;;;5037775;28;20495;-59
2023/04/25 10:31:07;;;;;;;17.75;2.67;;;9.40;99.90;;;;;;5031108;28;20025;-57
2023/04/25 10:33:38;;;;;;;11.27;2.28;;;9.40;99.90;;;;;;5029292;28;20029;-59
2023/04/25 10:36:14;;;;;;;17.33;2.05;;;9.50;99.90;;;;;;5030812;28;20473;-58
2023/04/25 10:38:43;;;;;;;14.38;2.72;;;9.60;99.90;;;;;;5024737;28;20033;-57
2023/04/25 10:41:10;;;;;;;12.50;2.47;;;9.60;99.90;;;;;;5030468;28;20100;-58
2023/04/25 10:43:38;;;;;;;12.75;1.65;;;9.60;99.90;;;;;;5034944;28;20029;-59
2023/04/25 10:46:21;;;;;;;15.23;2.25;;;9.70;99.90;;;;;;5028701;28;20029;-56
2023/04/25 10:48:59;;;;;;;12.27;3.28;;;9.70;99.90;;;;;;5033899;28;20037;-58
2023/04/25 10:51:32;;;;;;;13.52;2.25;;;9.90;99.90;;;;;;5029894;28;20136;-58
2023/04/25 10:53:59;;;;;;;6.90;2.28;;;10.50;99.90;;;;;;5031701;28;20039;-59
2023/04/25 10:56:27;;;;;;;7.38;2.03;;;10.60;99.90;;;;;;5029042;28;20381;-58
2023/04/25 10:59:23;;;;;;;14.48;3.25;;;10.40;99.90;;;;;;5035123;28;20070;-59
2023/04/25 11:01:52;;;;;;;14.38;2.50;;;10.40;99.90;;;;;;5031628;28;20516;-59
2023/04/25 11:04:23;;;;;;;11.80;2.92;;;10.30;99.90;;;;;;5033609;28;20017;-58
2023/04/25 11:07:03;;;;;;;7.18;2.20;;;10.10;99.90;;;;;;5028815;28;20072;-57
2023/04/25 11:09:29;;;;;;;4.90;1.88;;;10.10;99.90;;;;;;5029880;28;20022;-58
2023/04/25 11:11:56;;;;;;;10.27;4.05;;;9.90;99.90;;;;;;5036837;28;20021;-58
2023/04/25 11:14:22;;;;;;;7.18;1.88;;;9.80;99.90;;;;;;5030128;28;20033;-59
2023/04/25 11:16:52;;;;;;;10.27;2.22;;;9.80;99.90;;;;;;5031705;28;20021;-60
2023/04/25 11:19:20;;;;;;;7.47;1.98;;;9.70;99.90;;;;;;5033224;28;20079;-59
2023/04/25 11:21:45;;;;;;;4.45;1.83;;;9.70;99.90;;;;;;5031368;28;20638;-56
2023/04/25 11:24:11;;;;;;;10.20;2.50;;;9.60;99.90;;;;;;5030078;28;20094;-58
2023/04/25 11:26:37;;;;;;;7.20;1.70;;;9.60;99.90;;;;;;5029093;28;20381;-59
2023/04/25 11:29:03;;;;;;;7.75;1.27;;;9.60;99.90;;;;;;5030336;28;20380;-59
2023/04/25 11:31:29;;;;;;;5.85;1.15;;;9.70;99.90;;;;;;5033865;28;20531;-59
2023/04/25 11:33:57;;;;;;;9.82;1.88;;;9.80;99.90;;;;;;5029115;28;20013;-60
2023/04/25 11:36:24;;;;;;;5.80;1.38;;;10.00;99.90;;;;;;5029403;28;20036;-59
2023/04/25 11:38:51;;;;;;;11.07;1.83;;;10.10;99.90;;;;;;5027421;28;20052;-59
2023/04/25 11:41:17;;;;;;;11.15;1.70;;;10.20;99.90;;;;;;5024203;28;20365;-59
2023/04/25 11:43:43;;;;;;;13.40;1.65;;;10.20;99.90;;;;;;5029117;28;20040;-58
2023/04/25 11:46:09;;;;;;;3.40;1.42;;;10.30;99.90;;;;;;5023258;28;20075;-58
2023/04/25 11:48:42;;;;;;;8.35;1.98;;;10.50;99.90;;;;;;5024013;28;20036;-61
2023/04/25 11:51:08;;;;;;;2.90;2.17;;;11.00;99.90;;;;;;5023183;28;20185;-60
2023/04/25 11:53:33;;;;;;;11.70;1.25;;;11.40;99.90;;;;;;5027467;28;20158;-60
2023/04/25 11:55:59;;;;;;;6.32;1.58;;;11.40;99.90;;;;;;5030311;28;20080;-58
2023/04/25 11:58:26;;;;;;;5.45;1.75;;;11.30;99.90;;;;;;5024432;28;20029;-58
2023/04/25 12:00:52;;;;;;;5.22;1.80;;;11.10;99.90;;;;;;5027790;28;20028;-58
2023/04/25 12:03:18;;;;;;;13.70;1.77;;;11.10;99.90;;;;;;5028519;28;20024;-61
2023/04/25 12:05:45;;;;;;;2.80;1.25;;;11.10;99.90;;;;;;5028207;28;20075;-60
2023/04/25 12:08:15;;;;;;;4.60;1.35;;;11.20;99.90;;;;;;5033255;28;20025;-58
2023/04/25 12:10:42;;;;;;;14.02;2.00;;;11.00;99.90;;;;;;5032275;28;20100;-60
2023/04/25 12:13:19;;;;;;;4.22;1.88;;;10.90;99.90;;;;;;5032602;28;20357;-59
2023/04/25 12:15:45;;;;;;;9.63;1.50;;;11.10;99.90;;;;;;5025726;28;20009;-61
2023/04/25 12:18:10;;;;;;;11.18;1.55;;;11.70;99.90;;;;;;5028178;28;20369;-61
2023/04/25 12:20:36;;;;;;;8.05;1.95;;;12.30;98.20;;;;;;5028273;28;20047;-61
2023/04/25 12:23:07;;;;;;;2.58;1.35;;;12.30;95.20;;;;;;5023008;28;20120;-59
2023/04/25 12:25:39;;;;;;;6.15;1.20;;;12.50;95.90;;;;;;5031594;28;20112;-59
2023/04/25 12:28:20;;;;;;;7.07;1.48;;;12.60;95.90;;;;;;5028526;28;20025;-59
2023/04/25 12:31:01;;;;;;;6.75;1.88;;;12.50;96.60;;;;;;5026393;28;20029;-61
2023/04/25 12:33:35;;;;;;;2.58;1.27;;;13.10;96.30;;;;;;5023456;28;20442;-60
2023/04/25 12:36:10;;;;;;;5.28;1.90;;;13.50;94.40;;;;;;5026303;28;20394;-59
2023/04/25 12:38:38;;;;;;;4.53;1.50;;;13.10;93.40;;;;;;5029014;28;20088;-60
2023/04/25 12:41:05;;;;;;;2.80;1.00;;;13.10;94.10;;;;;;5021654;28;20054;-61
2023/04/25 12:43:30;;;;;;;15.15;1.98;;;13.40;94.10;;;;;;5027200;28;20123;-59
2023/04/25 12:45:56;;;;;;;6.18;1.73;;;13.30;93.80;;;;;;5027408;28;20139;-59
2023/04/25 12:48:22;;;;;;;6.05;1.85;;;12.70;93.80;;;;;;5025251;28;20025;-60